Time;durP1;ratioP1;P1;durP2;ratioP2;P2;SDS_P1;SDS_P2;PMS_P1;PMS_P2;Temp;Humidity;BMP_temperature;BMP_pressure;BME280_temperature;BME280_humidity;BME280_pressure;Samples;Min_cycle;Max_cycle;Signal;HPM_P1;HPM_P2
2023/05/16 00:00:24;;;;;;;2.22;2.03;;;;;;;22.33;55.51;99833.59;39971704;29;20394;-77
2023/05/16 00:20:26;;;;;;;2.17;1.98;;;;;;;22.28;55.75;99809.44;39977123;29;20043;-77
2023/05/16 00:40:27;;;;;;;3.38;2.10;;;;;;;22.30;55.65;99802.25;39963374;29;20042;-76
2023/05/16 01:00:27;;;;;;;2.88;2.00;;;;;;;22.25;55.79;99815.00;39969198;29;20064;-78
2023/05/16 01:21:02;;;;;;;3.05;2.20;;;;;;;22.22;56.00;99831.94;39954275;29;20057;-77
2023/05/16 01:41:20;;;;;;;2.47;2.28;;;;;;;22.23;55.79;99824.88;39963203;29;20049;-78
2023/05/16 02:01:21;;;;;;;2.10;1.90;;;;;;;22.21;55.75;99774.88;39945441;29;20052;-76
2023/05/16 02:21:23;;;;;;;1.85;1.75;;;;;;;22.21;55.77;99784.63;39942939;29;20057;-79
2023/05/16 02:41:24;;;;;;;2.00;1.80;;;;;;;22.18;55.71;99743.53;39943341;29;20517;-79
2023/05/16 03:01:24;;;;;;;1.80;1.70;;;;;;;22.15;55.68;99778.09;39942260;29;20447;-77
2023/05/16 03:21:25;;;;;;;1.50;1.40;;;;;;;22.15;55.57;99741.16;39944973;29;20050;-77
2023/05/16 03:41:25;;;;;;;2.35;1.58;;;;;;;22.23;57.12;99757.13;39933733;29;20054;-80
2023/05/16 04:01:26;;;;;;;3.97;1.67;;;;;;;22.26;57.09;99752.56;39923897;29;20046;-79
2023/05/16 04:21:27;;;;;;;7.72;2.10;;;;;;;22.21;56.96;99763.50;39906412;29;20830;-78
2023/05/16 04:41:27;;;;;;;2.47;1.52;;;;;;;22.17;56.29;99778.78;39942316;29;20122;-75
2023/05/16 05:01:28;;;;;;;7.13;2.30;;;;;;;22.18;56.75;99796.28;39934660;29;20495;-75
2023/05/16 05:21:30;;;;;;;10.02;2.65;;;;;;;22.15;56.79;99807.09;39936427;29;20559;-74
2023/05/16 05:41:30;;;;;;;11.43;2.47;;;;;;;22.17;56.20;99796.44;39921465;29;20049;-75
2023/05/16 06:01:31;;;;;;;6.18;2.28;;;;;;;22.16;56.80;99797.38;39919072;29;20058;-77
2023/05/16 06:21:32;;;;;;;6.43;1.85;;;;;;;22.16;56.54;99782.38;39933214;29;20126;-76
2023/05/16 06:41:32;;;;;;;4.40;1.55;;;;;;;22.17;56.32;99781.41;39929631;29;20046;-75
2023/05/16 07:01:32;;;;;;;3.85;1.83;;;;;;;22.15;56.16;99777.25;39947506;29;20459;-75
2023/05/16 07:21:33;;;;;;;3.67;1.70;;;;;;;22.16;56.11;99781.56;39963605;29;20054;-75
2023/05/16 07:41:36;;;;;;;2.15;1.20;;;;;;;22.19;55.99;99757.53;39962617;29;20042;-74
2023/05/16 08:01:37;;;;;;;1.52;1.33;;;;;;;22.17;56.11;99757.69;39965719;29;20054;-75
2023/05/16 08:21:37;;;;;;;1.90;1.50;;;;;;;22.17;55.92;99765.59;39970594;29;20400;-73
2023/05/16 08:41:38;;;;;;;3.75;1.60;;;;;;;22.13;56.02;99744.91;39967163;29;20125;-80
2023/05/16 09:01:40;;;;;;;2.67;1.38;;;;;;;22.13;55.68;99737.84;39935534;29;20058;-78
2023/05/16 09:21:41;;;;;;;1.67;1.33;;;;;;;22.16;55.72;99727.00;39964452;29;20055;-80
2023/05/16 09:41:42;;;;;;;2.47;1.27;;;;;;;22.18;55.67;99730.34;39967780;29;20145;-80
2023/05/16 10:01:42;;;;;;;1.60;1.42;;;;;;;22.17;55.61;99715.50;39977443;29;20079;-81
2023/05/16 10:21:59;;;;;;;2.33;1.50;;;;;;;22.17;55.82;99712.88;39951683;29;20057;-80
2023/05/16 10:42:01;;;;;;;1.30;1.17;;;;;;;22.14;55.39;99691.22;39926090;29;20057;-77
2023/05/16 11:02:02;;;;;;;1.58;1.40;;;;;;;22.16;55.41;99665.56;39948766;29;20119;-74
2023/05/16 11:22:09;;;;;;;2.75;1.58;;;;;;;22.27;54.85;99635.53;39948089;29;20150;-74
2023/05/16 11:42:10;;;;;;;3.15;1.40;;;;;;;22.33;54.76;99616.50;39916986;29;20061;-75
2023/05/16 12:02:10;;;;;;;1.67;1.50;;;;;;;22.37;54.70;99591.47;39922852;29;20471;-76
2023/05/16 12:22:17;;;;;;;1.70;1.60;;;;;;;22.48;54.46;99579.94;39941401;29;20404;-76
2023/05/16 12:42:18;;;;;;;1.90;1.58;;;;;;;22.51;54.28;99584.94;39935930;29;20738;-75
2023/05/16 13:02:18;;;;;;;3.30;1.80;;;;;;;22.54;54.53;99576.72;39916584;29;20054;-78
2023/05/16 13:22:21;;;;;;;2.80;2.20;;;;;;;22.60;54.72;99551.56;39970932;29;20065;-79
2023/05/16 13:42:21;;;;;;;3.28;2.60;;;;;;;22.57;53.50;99496.44;39965383;29;20041;-79
2023/05/16 14:02:23;;;;;;;4.30;2.88;;;;;;;22.52;53.83;99492.44;39948247;29;20056;-80
2023/05/16 14:22:24;;;;;;;6.35;3.50;;;;;;;22.55;54.17;99476.31;39942692;29;20050;-78
2023/05/16 14:42:24;;;;;;;6.60;5.03;;;;;;;22.52;54.25;99496.88;39949277;29;20051;-77
2023/05/16 15:02:25;;;;;;;7.47;5.10;;;;;;;22.46;54.21;99493.03;39959099;29;21994;-77
2023/05/16 15:22:26;;;;;;;6.75;5.00;;;;;;;22.40;54.42;99506.84;39956968;29;20057;-80
2023/05/16 15:42:27;;;;;;;6.82;4.75;;;;;;;22.35;55.09;99493.19;39985292;29;20050;-77
2023/05/16 16:02:28;;;;;;;6.78;4.13;;;;;;;22.35;55.54;99440.44;39975314;29;24024;-78
2023/05/16 16:22:28;;;;;;;9.35;4.00;;;;;;;22.37;55.56;99462.25;39977599;29;20050;-77
2023/05/16 16:42:30;;;;;;;6.75;3.50;;;;;;;22.38;55.84;99474.50;39963340;29;20433;-77
2023/05/16 17:02:30;;;;;;;5.57;3.42;;;;;;;22.35;56.29;99438.66;39929304;29;20917;-77
2023/05/16 17:22:31;;;;;;;8.38;3.38;;;;;;;22.33;56.44;99452.97;39944535;29;20053;-76
2023/05/16 17:42:31;;;;;;;6.80;3.75;;;;;;;22.27;57.13;99475.50;39920255;29;20160;-76
2023/05/16 18:02:32;;;;;;;5.75;3.30;;;;;;;22.31;57.28;99466.28;39935352;29;20098;-75
2023/05/16 18:22:32;;;;;;;5.40;3.63;;;;;;;22.36;57.44;99464.06;39890874;29;20095;-75
2023/05/16 18:42:33;;;;;;;6.78;3.13;;;;;;;22.39;57.24;99468.25;39916828;29;20042;-79
2023/05/16 19:02:33;;;;;;;9.00;3.38;;;;;;;22.37;57.23;99459.59;39969360;29;20066;-76
2023/05/16 19:22:36;;;;;;;6.70;3.75;;;;;;;22.32;57.17;99478.50;39962268;29;20054;-75
2023/05/16 19:42:36;;;;;;;4.72;3.22;;;;;;;22.28;56.84;99484.25;40002854;29;20521;-77
2023/05/16 20:02:37;;;;;;;6.68;3.22;;;;;;;22.26;56.60;99465.09;39981381;29;20054;-77
2023/05/16 20:22:38;;;;;;;5.47;3.20;;;;;;;22.24;56.62;99475.81;39969094;29;20058;-78
2023/05/16 20:42:38;;;;;;;3.42;2.80;;;;;;;22.21;56.69;99461.09;39990138;29;20050;-79
2023/05/16 21:02:39;;;;;;;4.93;3.10;;;;;;;22.21;56.76;99463.72;39967501;29;20061;-79
2023/05/16 21:22:39;;;;;;;7.03;3.05;;;;;;;22.20;56.98;99466.50;39960574;29;20049;-78
2023/05/16 21:42:40;;;;;;;3.28;2.85;;;;;;;22.19;57.05;99460.41;39951589;29;20110;-79
2023/05/16 22:02:40;;;;;;;2.92;2.63;;;;;;;22.19;56.87;99443.75;39968522;29;20054;-78
2023/05/16 22:22:43;;;;;;;3.05;2.58;;;;;;;22.17;56.95;99440.47;39957537;29;20047;-79
2023/05/16 22:42:43;;;;;;;12.10;2.60;;;;;;;22.16;56.94;99439.59;39959482;29;20787;-78
2023/05/16 23:02:45;;;;;;;5.22;2.70;;;;;;;22.14;56.91;99441.59;39950611;29;20030;-79
2023/05/16 23:22:45;;;;;;;3.33;2.42;;;;;;;22.13;57.39;99458.38;39941838;29;20070;-80
2023/05/16 23:42:46;;;;;;;2.58;2.30;;;;;;;22.13;57.97;99455.75;39954764;29;20066;-79
